VILK/LKO METAR and TAF weather

Enter ICAO airport designator
Station Type Date Time Source
VILK METAR 2021/03/05 18:30 UTC NOAA

VILK 051830Z 27005KT 3500 HZ NSC 19/13 Q1010 NOSIG


Station Type Date Time Source
VILK Decoded METAR 2021/03/05 18:30 UTC NOAA

Lucknow / Amausi, India (VILK) 26-45N 080-53E 128M
Mar 05, 2021 - 01:30 PM EST / 2021.03.05 1830 UTC
Wind: from the W (270 degrees) at 6 MPH (5 KT):0
Visibility: 2 mile(s):0
Weather: haze
Temperature: 66 F (19 C)
Dew Point: 55 F (13 C)
Relative Humidity: 68%
Pressure (altimeter): 29.83 in. Hg (1010 hPa)
ob: VILK 051830Z 27005KT 3500 HZ NSC 19/13 Q1010 NOSIG
cycle: 18

Station Type Date Time Source
VILK TAF 2021/03/05 18:18 UTC NOAA

TAF VILK 051700Z 0518/0624 27003KT 3000 HZ NSC
BECMG 0600/0602 2500 BR
BECMG 0605/0607 27010KT 5000 HZ
BECMG 0615/0617 3000 HZ
BECMG 0622/0624 29003KT 2500 BR

Example: see airport list